sensor_id;sensor_type;location;lat;lon;timestamp;P1;durP1;ratioP1;P2;durP2;ratioP2
13040;SDS011;6587;42.728;23.288;2023-07-02T00:01:17;9.97;;;6.40;;
13040;SDS011;6587;42.728;23.288;2023-07-02T00:03:43;9.87;;;6.63;;
13040;SDS011;6587;42.728;23.288;2023-07-02T00:06:10;10.43;;;6.50;;
13040;SDS011;6587;42.728;23.288;2023-07-02T00:08:36;9.53;;;6.60;;
13040;SDS011;6587;42.728;23.288;2023-07-02T00:11:03;12.67;;;6.37;;
13040;SDS011;6587;42.728;23.288;2023-07-02T00:13:30;10.97;;;6.50;;
13040;SDS011;6587;42.728;23.288;2023-07-02T00:15:57;8.33;;;6.20;;
13040;SDS011;6587;42.728;23.288;2023-07-02T00:18:24;10.80;;;6.67;;
13040;SDS011;6587;42.728;23.288;2023-07-02T00:20:59;11.27;;;6.53;;
13040;SDS011;6587;42.728;23.288;2023-07-02T00:23:26;10.13;;;6.67;;
13040;SDS011;6587;42.728;23.288;2023-07-02T00:25:53;10.13;;;6.17;;
13040;SDS011;6587;42.728;23.288;2023-07-02T00:28:19;9.97;;;6.30;;
13040;SDS011;6587;42.728;23.288;2023-07-02T00:30:46;10.90;;;6.43;;
13040;SDS011;6587;42.728;23.288;2023-07-02T00:33:14;11.63;;;6.97;;
13040;SDS011;6587;42.728;23.288;2023-07-02T00:35:41;11.60;;;7.47;;
13040;SDS011;6587;42.728;23.288;2023-07-02T00:38:08;11.03;;;6.57;;
13040;SDS011;6587;42.728;23.288;2023-07-02T00:40:35;13.10;;;7.20;;
13040;SDS011;6587;42.728;23.288;2023-07-02T00:43:02;10.97;;;6.93;;
13040;SDS011;6587;42.728;23.288;2023-07-02T00:45:29;14.50;;;6.77;;
13040;SDS011;6587;42.728;23.288;2023-07-02T00:47:56;11.47;;;6.67;;
13040;SDS011;6587;42.728;23.288;2023-07-02T00:50:25;10.83;;;6.80;;
13040;SDS011;6587;42.728;23.288;2023-07-02T00:52:52;10.30;;;6.03;;
13040;SDS011;6587;42.728;23.288;2023-07-02T00:55:20;9.63;;;6.43;;
13040;SDS011;6587;42.728;23.288;2023-07-02T00:57:47;10.23;;;6.10;;
13040;SDS011;6587;42.728;23.288;2023-07-02T01:00:14;11.57;;;6.50;;
13040;SDS011;6587;42.728;23.288;2023-07-02T01:02:40;13.63;;;6.77;;
13040;SDS011;6587;42.728;23.288;2023-07-02T01:05:09;10.67;;;6.00;;
13040;SDS011;6587;42.728;23.288;2023-07-02T01:07:37;10.13;;;6.40;;
13040;SDS011;6587;42.728;23.288;2023-07-02T01:10:04;10.47;;;6.23;;
13040;SDS011;6587;42.728;23.288;2023-07-02T01:12:31;10.87;;;6.40;;
13040;SDS011;6587;42.728;23.288;2023-07-02T01:14:59;10.47;;;6.43;;
13040;SDS011;6587;42.728;23.288;2023-07-02T01:17:27;9.67;;;6.10;;
13040;SDS011;6587;42.728;23.288;2023-07-02T01:19:55;10.80;;;6.20;;
13040;SDS011;6587;42.728;23.288;2023-07-02T01:22:25;12.03;;;6.37;;
13040;SDS011;6587;42.728;23.288;2023-07-02T01:24:52;11.10;;;6.70;;
13040;SDS011;6587;42.728;23.288;2023-07-02T01:27:19;12.50;;;6.20;;
13040;SDS011;6587;42.728;23.288;2023-07-02T01:29:46;8.93;;;6.00;;
13040;SDS011;6587;42.728;23.288;2023-07-02T01:32:13;9.43;;;5.77;;
13040;SDS011;6587;42.728;23.288;2023-07-02T01:34:40;8.93;;;5.87;;
13040;SDS011;6587;42.728;23.288;2023-07-02T01:37:10;9.40;;;6.17;;
13040;SDS011;6587;42.728;23.288;2023-07-02T01:39:37;9.80;;;6.17;;
13040;SDS011;6587;42.728;23.288;2023-07-02T01:42:07;9.50;;;6.40;;
13040;SDS011;6587;42.728;23.288;2023-07-02T01:44:34;10.30;;;6.17;;
13040;SDS011;6587;42.728;23.288;2023-07-02T01:47:01;12.87;;;6.23;;
13040;SDS011;6587;42.728;23.288;2023-07-02T01:49:27;10.27;;;6.13;;
13040;SDS011;6587;42.728;23.288;2023-07-02T01:51:54;10.63;;;6.23;;
13040;SDS011;6587;42.728;23.288;2023-07-02T01:54:23;13.50;;;6.90;;
13040;SDS011;6587;42.728;23.288;2023-07-02T01:56:52;11.33;;;6.07;;
13040;SDS011;6587;42.728;23.288;2023-07-02T01:59:19;11.67;;;6.60;;
13040;SDS011;6587;42.728;23.288;2023-07-02T02:01:46;13.50;;;7.00;;
13040;SDS011;6587;42.728;23.288;2023-07-02T02:04:13;12.10;;;6.37;;
13040;SDS011;6587;42.728;23.288;2023-07-02T02:06:39;13.10;;;7.00;;
13040;SDS011;6587;42.728;23.288;2023-07-02T02:09:06;13.30;;;7.00;;
13040;SDS011;6587;42.728;23.288;2023-07-02T02:11:37;10.77;;;7.10;;
13040;SDS011;6587;42.728;23.288;2023-07-02T02:14:03;12.07;;;7.27;;
13040;SDS011;6587;42.728;23.288;2023-07-02T02:16:30;10.33;;;6.83;;
13040;SDS011;6587;42.728;23.288;2023-07-02T02:18:58;12.90;;;7.00;;
13040;SDS011;6587;42.728;23.288;2023-07-02T02:21:25;11.37;;;7.03;;
13040;SDS011;6587;42.728;23.288;2023-07-02T02:23:52;14.20;;;7.13;;
13040;SDS011;6587;42.728;23.288;2023-07-02T02:26:19;11.93;;;6.80;;
13040;SDS011;6587;42.728;23.288;2023-07-02T02:28:50;10.47;;;6.60;;
13040;SDS011;6587;42.728;23.288;2023-07-02T02:31:16;12.50;;;6.63;;
13040;SDS011;6587;42.728;23.288;2023-07-02T02:33:43;12.87;;;6.87;;
13040;SDS011;6587;42.728;23.288;2023-07-02T02:36:12;12.27;;;8.00;;
13040;SDS011;6587;42.728;23.288;2023-07-02T02:38:38;12.13;;;6.97;;
13040;SDS011;6587;42.728;23.288;2023-07-02T02:41:05;10.50;;;6.43;;
13040;SDS011;6587;42.728;23.288;2023-07-02T02:43:36;11.57;;;6.50;;
13040;SDS011;6587;42.728;23.288;2023-07-02T02:46:05;11.07;;;6.77;;
13040;SDS011;6587;42.728;23.288;2023-07-02T02:48:32;9.33;;;6.37;;
13040;SDS011;6587;42.728;23.288;2023-07-02T02:50:58;12.47;;;6.70;;
13040;SDS011;6587;42.728;23.288;2023-07-02T02:53:25;13.37;;;6.70;;
13040;SDS011;6587;42.728;23.288;2023-07-02T02:55:52;14.87;;;7.50;;
13040;SDS011;6587;42.728;23.288;2023-07-02T02:58:19;14.23;;;7.77;;
13040;SDS011;6587;42.728;23.288;2023-07-02T03:00:45;14.83;;;7.63;;
13040;SDS011;6587;42.728;23.288;2023-07-02T03:03:13;14.17;;;7.20;;
13040;SDS011;6587;42.728;23.288;2023-07-02T03:05:40;13.27;;;7.33;;
13040;SDS011;6587;42.728;23.288;2023-07-02T03:08:09;16.27;;;7.67;;
13040;SDS011;6587;42.728;23.288;2023-07-02T03:10:36;14.23;;;6.73;;
13040;SDS011;6587;42.728;23.288;2023-07-02T03:13:02;15.63;;;7.87;;
13040;SDS011;6587;42.728;23.288;2023-07-02T03:15:29;14.20;;;7.90;;
13040;SDS011;6587;42.728;23.288;2023-07-02T03:17:56;12.97;;;7.70;;
13040;SDS011;6587;42.728;23.288;2023-07-02T03:20:24;12.77;;;7.93;;
13040;SDS011;6587;42.728;23.288;2023-07-02T03:22:50;12.53;;;7.50;;
13040;SDS011;6587;42.728;23.288;2023-07-02T03:25:17;13.73;;;8.10;;
13040;SDS011;6587;42.728;23.288;2023-07-02T03:27:43;15.23;;;7.50;;
13040;SDS011;6587;42.728;23.288;2023-07-02T03:30:10;16.90;;;8.03;;
13040;SDS011;6587;42.728;23.288;2023-07-02T03:32:37;16.47;;;7.87;;
13040;SDS011;6587;42.728;23.288;2023-07-02T03:35:04;15.20;;;7.67;;
13040;SDS011;6587;42.728;23.288;2023-07-02T03:37:32;18.07;;;7.60;;
13040;SDS011;6587;42.728;23.288;2023-07-02T03:39:58;13.70;;;7.50;;
13040;SDS011;6587;42.728;23.288;2023-07-02T03:42:25;12.23;;;7.07;;
13040;SDS011;6587;42.728;23.288;2023-07-02T03:44:51;13.13;;;7.40;;
13040;SDS011;6587;42.728;23.288;2023-07-02T03:47:18;12.63;;;7.53;;
13040;SDS011;6587;42.728;23.288;2023-07-02T03:49:45;14.17;;;7.83;;
13040;SDS011;6587;42.728;23.288;2023-07-02T03:52:11;12.33;;;7.07;;
13040;SDS011;6587;42.728;23.288;2023-07-02T03:54:39;14.97;;;7.83;;
13040;SDS011;6587;42.728;23.288;2023-07-02T03:57:06;14.03;;;8.30;;
13040;SDS011;6587;42.728;23.288;2023-07-02T03:59:33;10.73;;;7.07;;
13040;SDS011;6587;42.728;23.288;2023-07-02T04:02:00;19.20;;;8.63;;
13040;SDS011;6587;42.728;23.288;2023-07-02T04:04:27;13.73;;;7.33;;
13040;SDS011;6587;42.728;23.288;2023-07-02T04:06:53;12.70;;;8.07;;
13040;SDS011;6587;42.728;23.288;2023-07-02T04:09:20;12.87;;;7.93;;
13040;SDS011;6587;42.728;23.288;2023-07-02T04:11:48;15.37;;;8.50;;
13040;SDS011;6587;42.728;23.288;2023-07-02T04:14:14;14.63;;;8.53;;
13040;SDS011;6587;42.728;23.288;2023-07-02T04:16:41;14.60;;;8.87;;
13040;SDS011;6587;42.728;23.288;2023-07-02T04:19:09;15.70;;;9.03;;
13040;SDS011;6587;42.728;23.288;2023-07-02T04:21:35;15.90;;;8.63;;
13040;SDS011;6587;42.728;23.288;2023-07-02T04:24:02;12.90;;;7.90;;
13040;SDS011;6587;42.728;23.288;2023-07-02T04:26:28;14.40;;;8.47;;
13040;SDS011;6587;42.728;23.288;2023-07-02T04:28:56;13.43;;;8.43;;
13040;SDS011;6587;42.728;23.288;2023-07-02T04:31:24;15.50;;;8.67;;
13040;SDS011;6587;42.728;23.288;2023-07-02T04:33:51;14.00;;;7.70;;
13040;SDS011;6587;42.728;23.288;2023-07-02T04:36:18;13.97;;;7.83;;
13040;SDS011;6587;42.728;23.288;2023-07-02T04:38:44;10.63;;;7.40;;
13040;SDS011;6587;42.728;23.288;2023-07-02T04:41:11;14.23;;;8.37;;
13040;SDS011;6587;42.728;23.288;2023-07-02T04:43:37;16.10;;;8.23;;
13040;SDS011;6587;42.728;23.288;2023-07-02T04:46:05;17.50;;;8.30;;
13040;SDS011;6587;42.728;23.288;2023-07-02T04:48:33;18.03;;;9.03;;
13040;SDS011;6587;42.728;23.288;2023-07-02T04:50:59;13.97;;;8.83;;
13040;SDS011;6587;42.728;23.288;2023-07-02T04:53:26;13.73;;;8.60;;
13040;SDS011;6587;42.728;23.288;2023-07-02T04:55:52;15.30;;;8.53;;
13040;SDS011;6587;42.728;23.288;2023-07-02T04:58:19;14.43;;;8.47;;
13040;SDS011;6587;42.728;23.288;2023-07-02T05:00:45;15.67;;;9.20;;
13040;SDS011;6587;42.728;23.288;2023-07-02T05:03:13;14.17;;;8.30;;
13040;SDS011;6587;42.728;23.288;2023-07-02T05:05:40;17.93;;;9.17;;
13040;SDS011;6587;42.728;23.288;2023-07-02T05:08:07;14.03;;;8.57;;
13040;SDS011;6587;42.728;23.288;2023-07-02T05:10:33;14.97;;;8.57;;
13040;SDS011;6587;42.728;23.288;2023-07-02T05:13:00;19.40;;;9.63;;
13040;SDS011;6587;42.728;23.288;2023-07-02T05:15:26;19.50;;;8.77;;
13040;SDS011;6587;42.728;23.288;2023-07-02T05:17:53;17.83;;;7.87;;
13040;SDS011;6587;42.728;23.288;2023-07-02T05:20:23;14.63;;;8.73;;
13040;SDS011;6587;42.728;23.288;2023-07-02T05:22:50;13.33;;;8.47;;
13040;SDS011;6587;42.728;23.288;2023-07-02T05:25:16;12.53;;;8.20;;
13040;SDS011;6587;42.728;23.288;2023-07-02T05:27:43;16.10;;;8.70;;
13040;SDS011;6587;42.728;23.288;2023-07-02T05:30:10;14.77;;;8.33;;
13040;SDS011;6587;42.728;23.288;2023-07-02T05:32:37;20.43;;;8.57;;
13040;SDS011;6587;42.728;23.288;2023-07-02T05:35:04;27.37;;;9.57;;
13040;SDS011;6587;42.728;23.288;2023-07-02T05:37:32;16.90;;;8.87;;
13040;SDS011;6587;42.728;23.288;2023-07-02T05:39:59;16.20;;;8.97;;
13040;SDS011;6587;42.728;23.288;2023-07-02T05:42:25;15.67;;;9.10;;
13040;SDS011;6587;42.728;23.288;2023-07-02T05:44:52;12.67;;;8.33;;
13040;SDS011;6587;42.728;23.288;2023-07-02T05:47:19;15.33;;;8.57;;
13040;SDS011;6587;42.728;23.288;2023-07-02T05:49:45;14.10;;;8.63;;
13040;SDS011;6587;42.728;23.288;2023-07-02T05:52:12;16.07;;;9.63;;
13040;SDS011;6587;42.728;23.288;2023-07-02T05:54:40;15.60;;;9.07;;
13040;SDS011;6587;42.728;23.288;2023-07-02T05:57:07;17.83;;;9.03;;
13040;SDS011;6587;42.728;23.288;2023-07-02T05:59:33;21.37;;;9.20;;
13040;SDS011;6587;42.728;23.288;2023-07-02T06:02:00;16.63;;;9.90;;
13040;SDS011;6587;42.728;23.288;2023-07-02T06:04:26;15.90;;;9.53;;
13040;SDS011;6587;42.728;23.288;2023-07-02T06:06:53;17.77;;;10.07;;
13040;SDS011;6587;42.728;23.288;2023-07-02T06:09:20;14.87;;;9.80;;
13040;SDS011;6587;42.728;23.288;2023-07-02T06:11:48;18.50;;;10.17;;
13040;SDS011;6587;42.728;23.288;2023-07-02T06:14:14;16.00;;;9.77;;
13040;SDS011;6587;42.728;23.288;2023-07-02T06:16:41;15.83;;;9.83;;
13040;SDS011;6587;42.728;23.288;2023-07-02T06:19:08;16.27;;;10.00;;
13040;SDS011;6587;42.728;23.288;2023-07-02T06:21:34;17.00;;;9.73;;
13040;SDS011;6587;42.728;23.288;2023-07-02T06:24:01;15.27;;;9.10;;
13040;SDS011;6587;42.728;23.288;2023-07-02T06:26:28;15.40;;;9.40;;
13040;SDS011;6587;42.728;23.288;2023-07-02T06:28:56;18.00;;;9.13;;
13040;SDS011;6587;42.728;23.288;2023-07-02T06:31:23;17.03;;;9.23;;
13040;SDS011;6587;42.728;23.288;2023-07-02T06:33:50;17.33;;;9.87;;
13040;SDS011;6587;42.728;23.288;2023-07-02T06:36:16;15.53;;;9.40;;
13040;SDS011;6587;42.728;23.288;2023-07-02T06:38:44;19.70;;;9.27;;
13040;SDS011;6587;42.728;23.288;2023-07-02T06:41:10;19.60;;;10.37;;
13040;SDS011;6587;42.728;23.288;2023-07-02T06:43:37;22.13;;;10.23;;
13040;SDS011;6587;42.728;23.288;2023-07-02T06:46:05;19.73;;;10.00;;
13040;SDS011;6587;42.728;23.288;2023-07-02T06:48:32;17.63;;;9.70;;
13040;SDS011;6587;42.728;23.288;2023-07-02T06:50:59;18.10;;;9.70;;
13040;SDS011;6587;42.728;23.288;2023-07-02T06:53:25;16.93;;;10.17;;
13040;SDS011;6587;42.728;23.288;2023-07-02T06:55:52;17.97;;;9.80;;
13040;SDS011;6587;42.728;23.288;2023-07-02T06:58:18;17.47;;;9.73;;
13040;SDS011;6587;42.728;23.288;2023-07-02T07:00:45;19.77;;;9.57;;
13040;SDS011;6587;42.728;23.288;2023-07-02T07:03:13;16.60;;;9.27;;
13040;SDS011;6587;42.728;23.288;2023-07-02T07:05:40;13.40;;;8.87;;
13040;SDS011;6587;42.728;23.288;2023-07-02T07:08:07;14.73;;;8.90;;
13040;SDS011;6587;42.728;23.288;2023-07-02T07:10:33;14.93;;;9.33;;
13040;SDS011;6587;42.728;23.288;2023-07-02T07:13:00;19.60;;;10.00;;
13040;SDS011;6587;42.728;23.288;2023-07-02T07:15:29;18.47;;;9.83;;
13040;SDS011;6587;42.728;23.288;2023-07-02T07:17:55;12.37;;;8.63;;
13040;SDS011;6587;42.728;23.288;2023-07-02T07:20:23;14.90;;;9.10;;
13040;SDS011;6587;42.728;23.288;2023-07-02T07:22:50;19.43;;;9.47;;
13040;SDS011;6587;42.728;23.288;2023-07-02T07:25:17;14.23;;;8.93;;
13040;SDS011;6587;42.728;23.288;2023-07-02T07:27:43;15.87;;;9.07;;
13040;SDS011;6587;42.728;23.288;2023-07-02T07:30:10;17.13;;;9.03;;
13040;SDS011;6587;42.728;23.288;2023-07-02T07:32:37;14.03;;;9.07;;
13040;SDS011;6587;42.728;23.288;2023-07-02T07:35:04;12.23;;;8.03;;
13040;SDS011;6587;42.728;23.288;2023-07-02T07:37:32;13.47;;;8.10;;
13040;SDS011;6587;42.728;23.288;2023-07-02T07:39:58;16.67;;;9.97;;
13040;SDS011;6587;42.728;23.288;2023-07-02T07:42:25;17.20;;;9.43;;
13040;SDS011;6587;42.728;23.288;2023-07-02T07:44:52;14.30;;;10.03;;
13040;SDS011;6587;42.728;23.288;2023-07-02T07:47:18;16.07;;;9.07;;
13040;SDS011;6587;42.728;23.288;2023-07-02T07:49:45;15.27;;;9.53;;
13040;SDS011;6587;42.728;23.288;2023-07-02T07:52:12;17.40;;;9.47;;
13040;SDS011;6587;42.728;23.288;2023-07-02T07:54:39;14.30;;;8.40;;
13040;SDS011;6587;42.728;23.288;2023-07-02T07:57:06;16.25;;;9.68;;
13040;SDS011;6587;42.728;23.288;2023-07-02T07:59:33;14.57;;;9.87;;
13040;SDS011;6587;42.728;23.288;2023-07-02T08:01:59;19.67;;;9.90;;
13040;SDS011;6587;42.728;23.288;2023-07-02T08:04:26;16.35;;;10.27;;
13040;SDS011;6587;42.728;23.288;2023-07-02T08:06:52;16.40;;;10.10;;
13040;SDS011;6587;42.728;23.288;2023-07-02T08:09:20;15.63;;;10.03;;
13040;SDS011;6587;42.728;23.288;2023-07-02T08:11:48;18.50;;;9.77;;
13040;SDS011;6587;42.728;23.288;2023-07-02T08:14:14;14.43;;;9.00;;
13040;SDS011;6587;42.728;23.288;2023-07-02T08:16:42;17.03;;;9.63;;
13040;SDS011;6587;42.728;23.288;2023-07-02T08:19:09;14.73;;;8.77;;
13040;SDS011;6587;42.728;23.288;2023-07-02T08:21:36;21.73;;;10.53;;
13040;SDS011;6587;42.728;23.288;2023-07-02T08:24:02;14.35;;;9.00;;
13040;SDS011;6587;42.728;23.288;2023-07-02T08:26:29;17.27;;;9.27;;
13040;SDS011;6587;42.728;23.288;2023-07-02T08:28:57;12.43;;;8.17;;
13040;SDS011;6587;42.728;23.288;2023-07-02T08:31:24;14.10;;;8.60;;
13040;SDS011;6587;42.728;23.288;2023-07-02T08:33:50;14.00;;;8.90;;
13040;SDS011;6587;42.728;23.288;2023-07-02T08:36:17;16.07;;;9.33;;
13040;SDS011;6587;42.728;23.288;2023-07-02T08:38:44;15.77;;;9.17;;
13040;SDS011;6587;42.728;23.288;2023-07-02T08:41:11;14.55;;;8.43;;
13040;SDS011;6587;42.728;23.288;2023-07-02T08:43:38;14.13;;;9.03;;
13040;SDS011;6587;42.728;23.288;2023-07-02T08:46:06;15.03;;;8.83;;
13040;SDS011;6587;42.728;23.288;2023-07-02T08:48:33;13.27;;;7.75;;
13040;SDS011;6587;42.728;23.288;2023-07-02T08:51:00;11.55;;;7.95;;
13040;SDS011;6587;42.728;23.288;2023-07-02T08:53:28;12.63;;;8.32;;
13040;SDS011;6587;42.728;23.288;2023-07-02T08:55:59;15.63;;;8.50;;
13040;SDS011;6587;42.728;23.288;2023-07-02T08:58:25;12.63;;;8.25;;
13040;SDS011;6587;42.728;23.288;2023-07-02T09:01:03;13.25;;;8.10;;
13040;SDS011;6587;42.728;23.288;2023-07-02T09:03:31;10.10;;;7.30;;
13040;SDS011;6587;42.728;23.288;2023-07-02T09:05:58;11.70;;;8.15;;
13040;SDS011;6587;42.728;23.288;2023-07-02T09:08:24;10.35;;;7.72;;
13040;SDS011;6587;42.728;23.288;2023-07-02T09:10:51;11.02;;;7.22;;
13040;SDS011;6587;42.728;23.288;2023-07-02T09:13:18;11.93;;;7.25;;
13040;SDS011;6587;42.728;23.288;2023-07-02T09:15:44;11.93;;;7.65;;
13040;SDS011;6587;42.728;23.288;2023-07-02T09:18:14;10.60;;;7.55;;
13040;SDS011;6587;42.728;23.288;2023-07-02T09:20:42;10.90;;;8.07;;
13040;SDS011;6587;42.728;23.288;2023-07-02T09:23:09;12.45;;;7.45;;
13040;SDS011;6587;42.728;23.288;2023-07-02T09:25:36;14.48;;;7.63;;
13040;SDS011;6587;42.728;23.288;2023-07-02T09:28:11;9.90;;;7.10;;
13040;SDS011;6587;42.728;23.288;2023-07-02T09:30:48;11.20;;;7.60;;
13040;SDS011;6587;42.728;23.288;2023-07-02T09:33:15;10.15;;;7.28;;
13040;SDS011;6587;42.728;23.288;2023-07-02T09:35:43;10.23;;;7.10;;
13040;SDS011;6587;42.728;23.288;2023-07-02T09:38:10;9.60;;;6.82;;
13040;SDS011;6587;42.728;23.288;2023-07-02T09:40:37;12.07;;;7.95;;
13040;SDS011;6587;42.728;23.288;2023-07-02T09:43:05;10.60;;;7.82;;
13040;SDS011;6587;42.728;23.288;2023-07-02T09:45:32;11.77;;;7.82;;
13040;SDS011;6587;42.728;23.288;2023-07-02T09:47:58;10.63;;;7.40;;
13040;SDS011;6587;42.728;23.288;2023-07-02T09:50:26;10.57;;;7.07;;
13040;SDS011;6587;42.728;23.288;2023-07-02T09:52:55;11.85;;;7.78;;
13040;SDS011;6587;42.728;23.288;2023-07-02T09:55:21;13.02;;;7.35;;
13040;SDS011;6587;42.728;23.288;2023-07-02T09:57:48;10.68;;;7.38;;
13040;SDS011;6587;42.728;23.288;2023-07-02T10:00:15;17.58;;;8.20;;
13040;SDS011;6587;42.728;23.288;2023-07-02T10:02:47;9.95;;;7.07;;
13040;SDS011;6587;42.728;23.288;2023-07-02T10:05:23;11.25;;;7.55;;
13040;SDS011;6587;42.728;23.288;2023-07-02T10:07:51;10.73;;;7.35;;
13040;SDS011;6587;42.728;23.288;2023-07-02T10:10:26;9.07;;;6.45;;
13040;SDS011;6587;42.728;23.288;2023-07-02T10:12:53;11.52;;;7.53;;
13040;SDS011;6587;42.728;23.288;2023-07-02T10:15:24;11.18;;;7.32;;
13040;SDS011;6587;42.728;23.288;2023-07-02T10:17:54;11.68;;;7.53;;
13040;SDS011;6587;42.728;23.288;2023-07-02T10:20:30;10.82;;;7.10;;
13040;SDS011;6587;42.728;23.288;2023-07-02T10:22:57;10.35;;;6.95;;
13040;SDS011;6587;42.728;23.288;2023-07-02T10:25:24;8.95;;;6.60;;
13040;SDS011;6587;42.728;23.288;2023-07-02T10:27:52;8.57;;;6.20;;
13040;SDS011;6587;42.728;23.288;2023-07-02T10:30:18;10.02;;;6.00;;
13040;SDS011;6587;42.728;23.288;2023-07-02T10:32:45;8.45;;;5.50;;
13040;SDS011;6587;42.728;23.288;2023-07-02T10:35:15;7.03;;;5.53;;
13040;SDS011;6587;42.728;23.288;2023-07-02T10:37:41;11.02;;;6.03;;
13040;SDS011;6587;42.728;23.288;2023-07-02T10:40:08;9.55;;;5.35;;
13040;SDS011;6587;42.728;23.288;2023-07-02T10:42:44;6.53;;;5.20;;
13040;SDS011;6587;42.728;23.288;2023-07-02T10:45:12;10.07;;;5.20;;
13040;SDS011;6587;42.728;23.288;2023-07-02T10:47:39;7.68;;;5.55;;
13040;SDS011;6587;42.728;23.288;2023-07-02T10:50:13;9.48;;;5.65;;
13040;SDS011;6587;42.728;23.288;2023-07-02T10:52:39;6.47;;;4.85;;
13040;SDS011;6587;42.728;23.288;2023-07-02T10:55:06;5.50;;;4.40;;
13040;SDS011;6587;42.728;23.288;2023-07-02T10:57:33;8.65;;;4.80;;
13040;SDS011;6587;42.728;23.288;2023-07-02T11:00:03;7.13;;;4.97;;
13040;SDS011;6587;42.728;23.288;2023-07-02T11:02:34;7.63;;;4.95;;
13040;SDS011;6587;42.728;23.288;2023-07-02T11:05:01;7.80;;;5.22;;
13040;SDS011;6587;42.728;23.288;2023-07-02T11:07:28;7.63;;;5.00;;
13040;SDS011;6587;42.728;23.288;2023-07-02T11:09:55;9.63;;;4.97;;
13040;SDS011;6587;42.728;23.288;2023-07-02T11:12:27;6.32;;;4.50;;
13040;SDS011;6587;42.728;23.288;2023-07-02T11:14:53;6.78;;;4.63;;
13040;SDS011;6587;42.728;23.288;2023-07-02T11:17:24;6.60;;;4.35;;
13040;SDS011;6587;42.728;23.288;2023-07-02T11:19:52;8.63;;;4.65;;
13040;SDS011;6587;42.728;23.288;2023-07-02T11:22:19;8.98;;;5.30;;
13040;SDS011;6587;42.728;23.288;2023-07-02T11:24:45;7.07;;;5.30;;
13040;SDS011;6587;42.728;23.288;2023-07-02T11:27:20;7.03;;;5.38;;
13040;SDS011;6587;42.728;23.288;2023-07-02T11:29:47;10.40;;;5.80;;
13040;SDS011;6587;42.728;23.288;2023-07-02T11:32:13;9.70;;;5.57;;
13040;SDS011;6587;42.728;23.288;2023-07-02T11:34:41;10.60;;;5.70;;
13040;SDS011;6587;42.728;23.288;2023-07-02T11:37:09;7.32;;;5.13;;
13040;SDS011;6587;42.728;23.288;2023-07-02T11:39:36;10.63;;;6.13;;
13040;SDS011;6587;42.728;23.288;2023-07-02T11:42:02;8.00;;;5.68;;
13040;SDS011;6587;42.728;23.288;2023-07-02T11:44:29;8.88;;;5.80;;
13040;SDS011;6587;42.728;23.288;2023-07-02T11:46:56;8.38;;;5.57;;
13040;SDS011;6587;42.728;23.288;2023-07-02T11:49:22;11.05;;;4.88;;
13040;SDS011;6587;42.728;23.288;2023-07-02T11:51:49;5.88;;;4.63;;
13040;SDS011;6587;42.728;23.288;2023-07-02T11:54:17;7.90;;;4.97;;
13040;SDS011;6587;42.728;23.288;2023-07-02T11:56:44;13.93;;;6.47;;
13040;SDS011;6587;42.728;23.288;2023-07-02T11:59:11;17.85;;;6.90;;
13040;SDS011;6587;42.728;23.288;2023-07-02T12:01:37;22.48;;;8.52;;
13040;SDS011;6587;42.728;23.288;2023-07-02T12:04:04;7.57;;;4.35;;
13040;SDS011;6587;42.728;23.288;2023-07-02T12:06:32;7.43;;;4.78;;
13040;SDS011;6587;42.728;23.288;2023-07-02T12:08:59;6.55;;;4.63;;
13040;SDS011;6587;42.728;23.288;2023-07-02T12:11:27;8.40;;;4.85;;
13040;SDS011;6587;42.728;23.288;2023-07-02T12:13:53;7.78;;;5.15;;
13040;SDS011;6587;42.728;23.288;2023-07-02T12:16:20;7.25;;;4.55;;
13040;SDS011;6587;42.728;23.288;2023-07-02T12:18:47;7.00;;;4.85;;
13040;SDS011;6587;42.728;23.288;2023-07-02T12:21:13;6.53;;;4.45;;
13040;SDS011;6587;42.728;23.288;2023-07-02T12:23:41;8.57;;;5.00;;
13040;SDS011;6587;42.728;23.288;2023-07-02T12:26:07;10.30;;;5.40;;
13040;SDS011;6587;42.728;23.288;2023-07-02T12:28:35;8.85;;;5.50;;
13040;SDS011;6587;42.728;23.288;2023-07-02T12:31:02;31.63;;;11.73;;
13040;SDS011;6587;42.728;23.288;2023-07-02T12:33:28;15.13;;;6.50;;
13040;SDS011;6587;42.728;23.288;2023-07-02T12:35:55;8.65;;;5.57;;
13040;SDS011;6587;42.728;23.288;2023-07-02T12:38:21;23.77;;;9.05;;
13040;SDS011;6587;42.728;23.288;2023-07-02T12:40:48;39.10;;;13.15;;
13040;SDS011;6587;42.728;23.288;2023-07-02T12:43:15;14.20;;;7.07;;
13040;SDS011;6587;42.728;23.288;2023-07-02T12:45:43;15.95;;;6.97;;
13040;SDS011;6587;42.728;23.288;2023-07-02T12:48:09;11.35;;;7.05;;
13040;SDS011;6587;42.728;23.288;2023-07-02T12:50:37;9.02;;;6.18;;
13040;SDS011;6587;42.728;23.288;2023-07-02T12:53:03;7.78;;;6.07;;
13040;SDS011;6587;42.728;23.288;2023-07-02T12:55:30;10.15;;;6.47;;
13040;SDS011;6587;42.728;23.288;2023-07-02T12:57:57;8.40;;;6.10;;
13040;SDS011;6587;42.728;23.288;2023-07-02T13:00:23;9.63;;;5.90;;
13040;SDS011;6587;42.728;23.288;2023-07-02T13:02:51;6.80;;;5.28;;
13040;SDS011;6587;42.728;23.288;2023-07-02T13:05:18;8.57;;;5.80;;
13040;SDS011;6587;42.728;23.288;2023-07-02T13:07:44;8.20;;;5.75;;
13040;SDS011;6587;42.728;23.288;2023-07-02T13:10:11;7.90;;;6.00;;
13040;SDS011;6587;42.728;23.288;2023-07-02T13:12:37;9.55;;;5.90;;
13040;SDS011;6587;42.728;23.288;2023-07-02T13:15:04;8.15;;;5.95;;
13040;SDS011;6587;42.728;23.288;2023-07-02T13:17:31;8.00;;;6.00;;
13040;SDS011;6587;42.728;23.288;2023-07-02T13:19:59;7.32;;;6.00;;
13040;SDS011;6587;42.728;23.288;2023-07-02T13:22:25;7.25;;;5.85;;
13040;SDS011;6587;42.728;23.288;2023-07-02T13:24:52;7.32;;;5.90;;
13040;SDS011;6587;42.728;23.288;2023-07-02T13:27:19;8.90;;;5.95;;
13040;SDS011;6587;42.728;23.288;2023-07-02T13:29:45;7.35;;;5.80;;
13040;SDS011;6587;42.728;23.288;2023-07-02T13:32:12;7.75;;;5.80;;
13040;SDS011;6587;42.728;23.288;2023-07-02T13:34:38;8.88;;;6.43;;
13040;SDS011;6587;42.728;23.288;2023-07-02T13:37:06;13.13;;;5.75;;
13040;SDS011;6587;42.728;23.288;2023-07-02T13:39:33;8.65;;;5.78;;
13040;SDS011;6587;42.728;23.288;2023-07-02T13:41:59;10.43;;;6.20;;
13040;SDS011;6587;42.728;23.288;2023-07-02T13:44:26;9.93;;;6.28;;
13040;SDS011;6587;42.728;23.288;2023-07-02T13:46:53;8.15;;;5.47;;
13040;SDS011;6587;42.728;23.288;2023-07-02T13:49:19;9.07;;;5.65;;
13040;SDS011;6587;42.728;23.288;2023-07-02T13:51:46;9.30;;;6.47;;
13040;SDS011;6587;42.728;23.288;2023-07-02T13:54:16;8.73;;;5.75;;
13040;SDS011;6587;42.728;23.288;2023-07-02T13:56:44;10.63;;;6.20;;
13040;SDS011;6587;42.728;23.288;2023-07-02T13:59:12;8.18;;;5.95;;
13040;SDS011;6587;42.728;23.288;2023-07-02T14:01:38;8.55;;;5.97;;
13040;SDS011;6587;42.728;23.288;2023-07-02T14:04:05;8.00;;;5.50;;
13040;SDS011;6587;42.728;23.288;2023-07-02T14:06:32;8.15;;;5.80;;
13040;SDS011;6587;42.728;23.288;2023-07-02T14:08:58;9.45;;;6.35;;
13040;SDS011;6587;42.728;23.288;2023-07-02T14:11:25;11.30;;;6.85;;
13040;SDS011;6587;42.728;23.288;2023-07-02T14:13:53;14.27;;;8.30;;
13040;SDS011;6587;42.728;23.288;2023-07-02T14:16:20;9.13;;;6.93;;
13040;SDS011;6587;42.728;23.288;2023-07-02T14:18:49;9.98;;;6.65;;
13040;SDS011;6587;42.728;23.288;2023-07-02T14:21:15;10.48;;;5.63;;
13040;SDS011;6587;42.728;23.288;2023-07-02T14:23:42;10.82;;;7.13;;
13040;SDS011;6587;42.728;23.288;2023-07-02T14:26:09;13.85;;;8.00;;
13040;SDS011;6587;42.728;23.288;2023-07-02T14:28:35;14.52;;;8.13;;
13040;SDS011;6587;42.728;23.288;2023-07-02T14:31:03;12.50;;;7.57;;
13040;SDS011;6587;42.728;23.288;2023-07-02T14:33:31;11.27;;;8.25;;
13040;SDS011;6587;42.728;23.288;2023-07-02T14:35:59;10.43;;;7.25;;
13040;SDS011;6587;42.728;23.288;2023-07-02T14:38:26;10.45;;;7.25;;